Time;durP1;ratioP1;P1;durP2;ratioP2;P2;SDS_P1;SDS_P2;PMS_P1;PMS_P2;Temp;Humidity;BMP_temperature;BMP_pressure;BME280_temperature;BME280_humidity;BME280_pressure;Samples;Min_cycle;Max_cycle;Signal;HPM_P1;HPM_P2
2023/06/10 00:02:25;;;;;;;10.32;9.30;;;20.30;61.80;;;;;;5005244;28;114691;-78
2023/06/10 00:04:53;;;;;;;15.98;14.40;;;20.30;61.60;;;;;;5004473;28;116624;-79
2023/06/10 00:07:21;;;;;;;16.98;13.15;;;20.30;62.00;;;;;;5019832;28;115157;-78
2023/06/10 00:09:48;;;;;;;13.18;10.68;;;20.30;61.90;;;;;;5008366;28;114450;-77
2023/06/10 00:12:16;;;;;;;12.20;10.18;;;20.30;61.60;;;;;;5008593;28;114214;-78
2023/06/10 00:14:44;;;;;;;17.00;15.23;;;20.20;61.70;;;;;;5024373;28;114993;-78
2023/06/10 00:17:11;;;;;;;15.48;13.85;;;20.20;62.00;;;;;;4990725;28;118162;-76
2023/06/10 00:19:41;;;;;;;12.43;11.13;;;20.20;61.90;;;;;;5008734;28;114998;-76
2023/06/10 00:22:10;;;;;;;16.50;13.15;;;20.20;61.80;;;;;;5026138;27;114193;-78
2023/06/10 00:24:39;;;;;;;11.48;10.27;;;20.20;61.90;;;;;;5024125;28;114918;-78
2023/06/10 00:27:06;;;;;;;15.80;14.13;;;20.20;61.60;;;;;;5025439;28;114548;-76
2023/06/10 00:29:34;;;;;;;10.80;9.43;;;20.20;62.00;;;;;;5025585;28;114432;-77
2023/06/10 00:32:01;;;;;;;18.02;16.13;;;20.20;61.70;;;;;;5025378;28;114468;-77
2023/06/10 00:34:29;;;;;;;19.40;17.38;;;20.20;62.20;;;;;;5024037;28;115065;-77
2023/06/10 00:36:57;;;;;;;14.43;13.00;;;20.20;62.30;;;;;;5023939;28;114651;-77
2023/06/10 00:39:25;;;;;;;20.55;18.00;;;20.20;62.20;;;;;;5007801;28;119078;-76
2023/06/10 00:41:53;;;;;;;20.95;18.23;;;20.10;62.40;;;;;;5005992;28;114428;-76
2023/06/10 00:44:21;;;;;;;20.42;18.23;;;20.00;62.60;;;;;;5008707;28;115426;-76
2023/06/10 00:46:51;;;;;;;14.80;12.43;;;19.90;62.90;;;;;;4987399;28;114661;-75
2023/06/10 00:49:18;;;;;;;21.92;19.58;;;19.90;62.80;;;;;;5005272;28;114286;-77
2023/06/10 00:51:45;;;;;;;27.30;24.23;;;19.90;63.20;;;;;;4971296;28;114503;-76
2023/06/10 00:54:14;;;;;;;12.52;11.02;;;19.90;63.40;;;;;;5004481;28;114901;-77
2023/06/10 00:56:42;;;;;;;13.65;11.73;;;19.90;62.70;;;;;;4988895;28;114768;-77
2023/06/10 00:59:10;;;;;;;19.05;17.05;;;19.80;62.70;;;;;;5024227;28;114672;-75
2023/06/10 01:01:38;;;;;;;25.73;21.60;;;19.80;63.10;;;;;;5003472;28;114421;-77
2023/06/10 01:04:06;;;;;;;28.25;24.52;;;19.80;63.40;;;;;;4990398;28;114911;-76
2023/06/10 01:06:33;;;;;;;15.32;13.70;;;19.80;63.50;;;;;;5007953;28;114913;-76
2023/06/10 01:09:32;;;;;;;18.10;15.57;;;19.80;63.10;;;;;;5009058;28;114524;-76
2023/06/10 01:12:08;;;;;;;18.17;15.88;;;19.90;62.80;;;;;;5003524;28;114577;-77
2023/06/10 01:14:36;;;;;;;16.77;14.98;;;19.90;63.00;;;;;;5006521;28;114865;-77
2023/06/10 01:17:04;;;;;;;29.92;26.73;;;19.80;63.10;;;;;;5006538;28;114754;-79
2023/06/10 01:19:33;;;;;;;25.60;20.38;;;19.90;63.40;;;;;;5007698;28;114541;-78
2023/06/10 01:22:01;;;;;;;22.67;19.95;;;19.80;63.40;;;;;;4991193;28;114413;-78
2023/06/10 01:24:32;;;;;;;29.42;24.30;;;19.80;63.40;;;;;;5007532;28;114995;-77
2023/06/10 01:27:00;;;;;;;32.95;28.75;;;19.80;63.50;;;;;;4988902;28;116616;-78
2023/06/10 01:29:39;;;;;;;24.30;21.65;;;19.90;63.70;;;;;;5006674;28;114360;-77
2023/06/10 01:32:18;;;;;;;24.17;21.23;;;19.80;63.40;;;;;;4987388;28;114380;-76
2023/06/10 01:34:46;;;;;;;16.90;14.90;;;19.90;63.50;;;;;;4989409;28;114846;-79
2023/06/10 01:37:13;;;;;;;28.67;23.67;;;19.90;63.00;;;;;;5005340;28;114786;-79
2023/06/10 01:39:41;;;;;;;17.85;15.43;;;20.00;63.10;;;;;;5003025;28;114317;-79
2023/06/10 01:42:10;;;;;;;15.50;13.43;;;19.90;63.10;;;;;;5006525;28;114497;-79
2023/06/10 01:44:38;;;;;;;26.15;23.30;;;19.80;62.90;;;;;;5005779;28;114969;-78
2023/06/10 01:47:11;;;;;;;25.35;22.67;;;19.80;63.60;;;;;;4989803;28;114588;-78
2023/06/10 01:49:38;;;;;;;16.65;14.65;;;19.80;63.60;;;;;;5006202;28;114520;-78
2023/06/10 01:52:07;;;;;;;33.17;29.60;;;19.80;63.30;;;;;;5008192;28;116067;-78
2023/06/10 01:54:34;;;;;;;20.40;18.08;;;19.80;63.90;;;;;;5004947;28;116917;-78
2023/06/10 01:57:02;;;;;;;21.30;19.02;;;19.80;63.40;;;;;;5006371;28;114740;-78
2023/06/10 01:59:29;;;;;;;32.90;29.10;;;19.80;63.50;;;;;;5006581;28;114419;-79
2023/06/10 02:01:56;;;;;;;24.15;21.52;;;19.70;64.00;;;;;;5006600;28;114564;-79
2023/06/10 02:04:23;;;;;;;23.58;21.00;;;19.70;63.90;;;;;;5005551;28;114966;-79
2023/06/10 02:06:53;;;;;;;24.95;20.45;;;19.70;63.80;;;;;;5006393;28;119944;-79
2023/06/10 02:09:21;;;;;;;33.50;29.55;;;19.70;63.60;;;;;;5007499;28;114452;-79
2023/06/10 02:11:49;;;;;;;28.55;25.45;;;19.80;64.20;;;;;;5006448;28;114393;-77
2023/06/10 02:14:16;;;;;;;19.15;15.88;;;19.80;63.70;;;;;;4988239;28;115202;-76
2023/06/10 02:16:46;;;;;;;21.60;18.67;;;19.80;63.20;;;;;;5006948;28;114604;-77
2023/06/10 02:19:14;;;;;;;20.52;18.35;;;19.90;63.20;;;;;;4990051;28;114679;-77
2023/06/10 02:21:44;;;;;;;27.95;24.98;;;19.90;63.20;;;;;;5006082;28;114675;-76
2023/06/10 02:24:11;;;;;;;21.38;19.02;;;19.90;63.40;;;;;;5005464;28;115313;-79
2023/06/10 02:26:38;;;;;;;25.02;22.48;;;19.90;63.10;;;;;;4989272;28;115113;-77
2023/06/10 02:29:05;;;;;;;29.50;26.45;;;19.90;63.20;;;;;;5024964;28;114346;-77
2023/06/10 02:31:35;;;;;;;26.02;21.88;;;19.90;63.40;;;;;;5026959;28;114245;-78
2023/06/10 02:34:03;;;;;;;30.30;26.23;;;19.90;63.20;;;;;;5009550;28;115006;-78
2023/06/10 02:36:31;;;;;;;31.48;28.05;;;19.90;63.40;;;;;;5025436;28;116947;-78
2023/06/10 02:38:58;;;;;;;37.30;32.47;;;19.90;63.50;;;;;;5027123;28;115332;-78
2023/06/10 02:41:27;;;;;;;26.92;24.08;;;19.90;63.70;;;;;;5026708;28;114220;-78
2023/06/10 02:43:54;;;;;;;18.73;16.80;;;19.80;63.50;;;;;;5008842;28;115062;-78
2023/06/10 02:46:23;;;;;;;31.00;27.80;;;19.80;63.00;;;;;;5008918;28;115281;-78
2023/06/10 02:48:55;;;;;;;19.90;17.65;;;19.80;63.70;;;;;;5025938;28;117496;-79
2023/06/10 02:51:24;;;;;;;35.35;31.65;;;19.80;63.20;;;;;;5026071;28;114535;-78
2023/06/10 02:53:57;;;;;;;29.37;26.17;;;19.80;63.90;;;;;;5025240;28;116236;-78
2023/06/10 02:56:25;;;;;;;25.52;22.90;;;19.80;63.70;;;;;;5008626;28;117016;-78
2023/06/10 02:58:55;;;;;;;23.60;21.17;;;19.70;63.90;;;;;;5025642;28;114408;-78
2023/06/10 03:01:24;;;;;;;27.92;25.08;;;19.70;63.70;;;;;;5010202;28;114074;-78
2023/06/10 03:03:58;;;;;;;27.55;24.67;;;19.70;64.00;;;;;;4992642;28;115913;-78
2023/06/10 03:06:26;;;;;;;31.40;28.30;;;19.70;64.00;;;;;;5008741;28;114786;-78
2023/06/10 03:09:07;;;;;;;29.77;26.70;;;19.70;64.10;;;;;;5026298;28;114198;-78
2023/06/10 03:11:34;;;;;;;29.45;26.48;;;19.70;64.00;;;;;;5025859;28;114467;-78
2023/06/10 03:14:03;;;;;;;28.00;25.13;;;19.70;64.00;;;;;;5008594;28;115576;-76
2023/06/10 03:16:32;;;;;;;28.63;25.65;;;19.70;64.00;;;;;;5002084;28;114704;-76
2023/06/10 03:19:00;;;;;;;28.08;24.15;;;19.70;64.20;;;;;;5005643;28;114465;-78
2023/06/10 03:21:28;;;;;;;24.65;22.17;;;19.70;64.00;;;;;;5005879;28;114280;-77
2023/06/10 03:23:56;;;;;;;27.48;24.45;;;19.70;63.90;;;;;;5004062;28;116272;-78
2023/06/10 03:26:25;;;;;;;36.17;32.30;;;19.70;63.90;;;;;;4988162;28;114773;-78
2023/06/10 03:28:53;;;;;;;42.17;37.38;;;19.80;64.10;;;;;;5005648;28;114548;-76
2023/06/10 03:31:24;;;;;;;21.77;19.38;;;19.80;64.30;;;;;;5005504;28;114190;-77
2023/06/10 03:33:53;;;;;;;26.00;23.33;;;19.70;63.50;;;;;;4971282;28;117892;-77
2023/06/10 03:36:20;;;;;;;39.90;35.38;;;19.70;63.90;;;;;;4988032;28;115520;-77
2023/06/10 03:38:50;;;;;;;26.17;23.42;;;19.70;64.20;;;;;;4989162;28;114442;-77
2023/06/10 03:41:21;;;;;;;34.45;30.80;;;19.70;63.80;;;;;;5005494;28;114208;-77
2023/06/10 03:43:49;;;;;;;28.83;25.60;;;19.70;64.10;;;;;;4987770;28;115009;-77
2023/06/10 03:46:17;;;;;;;29.00;25.92;;;19.80;63.70;;;;;;5004194;28;115320;-78
2023/06/10 03:48:45;;;;;;;26.13;23.35;;;19.80;63.90;;;;;;4988737;28;114703;-77
2023/06/10 03:51:12;;;;;;;38.05;33.90;;;19.80;63.60;;;;;;4989083;28;114606;-78
2023/06/10 03:53:39;;;;;;;31.55;28.33;;;19.80;63.90;;;;;;4987076;28;116033;-77
2023/06/10 03:56:06;;;;;;;30.23;27.20;;;19.70;63.70;;;;;;5004097;28;114780;-77
2023/06/10 03:58:34;;;;;;;29.63;26.65;;;19.70;63.70;;;;;;4988493;28;114960;-77
2023/06/10 04:01:01;;;;;;;25.13;22.48;;;19.80;63.70;;;;;;4988796;28;114333;-76
2023/06/10 04:03:33;;;;;;;27.63;24.83;;;19.70;63.50;;;;;;5003814;28;115040;-76
2023/06/10 04:06:02;;;;;;;28.33;25.42;;;19.80;63.50;;;;;;4987316;28;114596;-76
2023/06/10 04:08:29;;;;;;;26.42;23.77;;;19.80;63.50;;;;;;4988522;28;114747;-76
2023/06/10 04:10:57;;;;;;;33.17;29.67;;;19.70;63.40;;;;;;5006589;28;114750;-77
2023/06/10 04:13:28;;;;;;;26.40;23.77;;;19.80;63.50;;;;;;5023554;28;114864;-76
2023/06/10 04:15:59;;;;;;;23.90;21.57;;;19.70;63.40;;;;;;5008028;28;114689;-77
2023/06/10 04:18:27;;;;;;;23.98;21.58;;;19.70;63.40;;;;;;5008024;28;115495;-76
2023/06/10 04:20:58;;;;;;;24.85;22.35;;;19.70;63.30;;;;;;5009115;28;114527;-76
2023/06/10 04:23:26;;;;;;;26.85;24.05;;;19.80;63.40;;;;;;5025129;28;114972;-76
2023/06/10 04:25:53;;;;;;;27.92;24.90;;;19.80;63.50;;;;;;5024065;28;114726;-77
2023/06/10 04:28:20;;;;;;;29.30;26.40;;;19.70;63.50;;;;;;5026188;28;114475;-77
2023/06/10 04:30:47;;;;;;;26.83;24.10;;;19.80;63.70;;;;;;5008704;28;114484;-77
2023/06/10 04:33:18;;;;;;;28.33;25.48;;;19.80;63.50;;;;;;4988131;28;116039;-77
2023/06/10 04:35:47;;;;;;;26.55;23.83;;;19.80;63.50;;;;;;5003929;28;115672;-77
2023/06/10 04:38:15;;;;;;;33.55;30.30;;;19.80;63.40;;;;;;4991452;28;114661;-77
2023/06/10 04:40:43;;;;;;;30.13;26.70;;;19.90;63.70;;;;;;5003930;28;115946;-80
2023/06/10 04:43:11;;;;;;;43.53;39.08;;;19.80;63.70;;;;;;5005333;28;114972;-77
2023/06/10 04:45:39;;;;;;;25.80;23.30;;;19.80;64.30;;;;;;4985491;28;115368;-76
2023/06/10 04:48:10;;;;;;;25.00;22.50;;;19.80;63.70;;;;;;4989582;28;114638;-78
2023/06/10 04:50:39;;;;;;;23.45;21.17;;;19.80;63.40;;;;;;4991110;28;117136;-76
2023/06/10 04:53:07;;;;;;;31.45;28.15;;;19.80;63.30;;;;;;5006763;28;115199;-77
2023/06/10 04:55:38;;;;;;;28.90;25.92;;;19.90;63.40;;;;;;5004926;28;115185;-77
2023/06/10 04:58:06;;;;;;;28.80;25.85;;;19.90;63.40;;;;;;5005732;28;117943;-77
2023/06/10 05:00:33;;;;;;;28.17;25.35;;;20.00;63.60;;;;;;5006480;28;114717;-79
2023/06/10 05:03:01;;;;;;;30.33;27.20;;;20.00;63.00;;;;;;5004766;28;115230;-78
2023/06/10 05:05:29;;;;;;;31.05;27.90;;;20.00;63.10;;;;;;5006216;28;116399;-77
2023/06/10 05:07:58;;;;;;;24.10;21.80;;;20.00;63.10;;;;;;5007544;28;114531;-78
2023/06/10 05:10:25;;;;;;;27.80;24.77;;;20.10;62.70;;;;;;5007619;28;114354;-78
2023/06/10 05:12:58;;;;;;;31.52;28.52;;;20.20;62.80;;;;;;5006703;28;115449;-78
2023/06/10 05:15:27;;;;;;;37.57;33.87;;;20.30;63.00;;;;;;5006260;28;114948;-77
2023/06/10 05:17:57;;;;;;;26.30;23.58;;;20.30;63.10;;;;;;5021808;28;115385;-77
2023/06/10 05:20:26;;;;;;;25.58;23.10;;;20.30;62.40;;;;;;5027544;28;114245;-77
2023/06/10 05:22:53;;;;;;;26.70;24.05;;;20.30;62.20;;;;;;5026527;28;115480;-77
2023/06/10 05:25:21;;;;;;;31.35;28.17;;;20.30;62.20;;;;;;5006193;28;114748;-77
2023/06/10 05:27:48;;;;;;;27.08;24.48;;;20.30;62.30;;;;;;5008473;28;114554;-77
2023/06/10 05:30:18;;;;;;;32.13;28.60;;;20.30;62.20;;;;;;5007838;28;114481;-77
2023/06/10 05:32:45;;;;;;;37.58;33.97;;;20.30;62.50;;;;;;5007270;28;114882;-76
2023/06/10 05:35:13;;;;;;;27.70;25.02;;;20.20;62.90;;;;;;5005834;28;115282;-77
2023/06/10 05:37:41;;;;;;;29.98;26.95;;;20.20;62.60;;;;;;4990813;28;114601;-78
2023/06/10 05:40:09;;;;;;;33.28;29.80;;;20.10;62.80;;;;;;5008281;28;114521;-78
2023/06/10 05:42:36;;;;;;;29.77;26.80;;;20.10;63.00;;;;;;5007252;28;114996;-77
2023/06/10 05:45:03;;;;;;;25.98;23.48;;;20.20;62.90;;;;;;5006841;28;114675;-79
2023/06/10 05:47:34;;;;;;;24.45;21.90;;;20.10;62.60;;;;;;5007568;28;114264;-77
2023/06/10 05:50:02;;;;;;;23.35;20.95;;;20.10;62.50;;;;;;5007037;28;114333;-78
2023/06/10 05:52:30;;;;;;;35.05;31.52;;;20.10;62.40;;;;;;5001670;28;115101;-77
2023/06/10 05:54:59;;;;;;;34.22;30.48;;;20.20;63.20;;;;;;5019677;27;115826;-77
2023/06/10 05:57:28;;;;;;;31.92;28.58;;;20.20;63.40;;;;;;5012796;28;114400;-78
2023/06/10 05:59:55;;;;;;;29.98;26.92;;;20.20;63.20;;;;;;5006695;28;114320;-78
2023/06/10 06:02:23;;;;;;;27.95;25.13;;;20.20;62.90;;;;;;5006288;28;115016;-78
2023/06/10 06:04:50;;;;;;;31.35;28.33;;;20.20;62.70;;;;;;5005538;28;114548;-78
2023/06/10 06:07:20;;;;;;;29.55;26.63;;;20.20;63.00;;;;;;5007764;28;114125;-78
2023/06/10 06:09:48;;;;;;;29.40;26.42;;;20.10;63.10;;;;;;5007224;28;114747;-78
2023/06/10 06:12:15;;;;;;;30.13;26.92;;;20.10;63.30;;;;;;5005446;28;115099;-78
2023/06/10 06:14:42;;;;;;;33.30;29.90;;;20.20;63.10;;;;;;5005510;28;114710;-78
2023/06/10 06:17:09;;;;;;;28.63;25.75;;;20.20;63.40;;;;;;5007757;28;114445;-78
2023/06/10 06:19:36;;;;;;;30.98;27.63;;;20.20;63.00;;;;;;4990041;28;115225;-78
2023/06/10 06:22:04;;;;;;;29.38;26.48;;;20.20;63.30;;;;;;5016305;28;114917;-78
2023/06/10 06:24:31;;;;;;;31.13;27.85;;;20.20;63.10;;;;;;5025499;28;115024;-77
2023/06/10 06:26:59;;;;;;;30.48;27.33;;;20.20;63.40;;;;;;5027605;27;114386;-77
2023/06/10 06:29:26;;;;;;;24.58;22.02;;;20.10;63.40;;;;;;5027728;28;114462;-77
2023/06/10 06:31:55;;;;;;;30.95;27.85;;;19.90;63.20;;;;;;5009523;28;118339;-78
2023/06/10 06:34:22;;;;;;;27.88;25.17;;;19.90;63.90;;;;;;5019981;27;114745;-77
2023/06/10 06:36:49;;;;;;;24.92;22.52;;;20.00;63.60;;;;;;5006099;28;114522;-78
2023/06/10 06:39:17;;;;;;;26.67;24.05;;;20.00;63.30;;;;;;5006262;28;114594;-78
2023/06/10 06:41:45;;;;;;;30.15;26.98;;;20.10;63.60;;;;;;5004054;28;115116;-77
2023/06/10 06:44:16;;;;;;;23.83;21.35;;;20.10;63.90;;;;;;5006200;28;114830;-78
2023/06/10 06:46:50;;;;;;;26.53;23.87;;;20.10;63.10;;;;;;5004272;28;114999;-78
2023/06/10 06:49:17;;;;;;;29.33;26.42;;;20.20;63.20;;;;;;5006980;28;114488;-78
2023/06/10 06:51:44;;;;;;;26.70;24.10;;;20.20;63.40;;;;;;5006168;28;114953;-77
2023/06/10 06:54:11;;;;;;;28.75;25.83;;;20.20;63.30;;;;;;5004129;28;115179;-77
2023/06/10 06:56:39;;;;;;;25.27;22.77;;;20.30;63.40;;;;;;5005746;28;114222;-77
2023/06/10 06:59:06;;;;;;;29.95;26.85;;;20.40;62.70;;;;;;4988513;28;114547;-77
2023/06/10 07:01:34;;;;;;;25.38;22.65;;;20.40;63.10;;;;;;5005898;28;115180;-77
2023/06/10 07:04:01;;;;;;;27.92;24.95;;;20.50;62.70;;;;;;5004890;28;114551;-77
2023/06/10 07:06:28;;;;;;;25.15;22.75;;;20.40;62.80;;;;;;5005711;28;114539;-78
2023/06/10 07:08:56;;;;;;;26.67;24.08;;;20.40;62.80;;;;;;5006610;28;114626;-78
2023/06/10 07:11:25;;;;;;;27.67;24.98;;;20.30;62.70;;;;;;5004111;28;116066;-78
2023/06/10 07:13:52;;;;;;;27.10;24.30;;;20.40;62.80;;;;;;5004400;28;116851;-78
2023/06/10 07:16:21;;;;;;;29.27;25.77;;;20.40;62.40;;;;;;5006154;27;115903;-78
2023/06/10 07:18:48;;;;;;;25.55;22.85;;;20.30;62.50;;;;;;5005690;28;114541;-78
2023/06/10 07:21:16;;;;;;;24.50;22.10;;;20.30;62.50;;;;;;5002045;28;114978;-78
2023/06/10 07:23:43;;;;;;;25.05;22.65;;;20.20;62.50;;;;;;5003359;28;114717;-77
2023/06/10 07:26:13;;;;;;;23.77;21.27;;;20.30;62.60;;;;;;5005029;28;114328;-78
2023/06/10 07:28:40;;;;;;;24.48;22.13;;;20.30;62.40;;;;;;5004565;28;114287;-78
2023/06/10 07:31:08;;;;;;;26.20;23.67;;;20.30;62.50;;;;;;5003195;28;115147;-77
2023/06/10 07:33:36;;;;;;;24.13;21.67;;;20.40;62.40;;;;;;5004294;28;114535;-78
2023/06/10 07:36:05;;;;;;;23.98;21.58;;;20.40;62.30;;;;;;5005619;28;114672;-78
2023/06/10 07:38:34;;;;;;;22.80;20.50;;;20.30;62.50;;;;;;5006632;28;114561;-78
2023/06/10 07:41:01;;;;;;;23.17;20.70;;;20.30;62.60;;;;;;5004969;28;116690;-77
2023/06/10 07:43:29;;;;;;;20.88;18.88;;;20.30;62.50;;;;;;5003534;28;114650;-78
2023/06/10 07:45:56;;;;;;;23.33;20.45;;;20.20;62.60;;;;;;5004557;28;114432;-78
2023/06/10 07:48:24;;;;;;;21.95;19.67;;;20.20;63.30;;;;;;5004827;28;114669;-78
2023/06/10 07:50:52;;;;;;;21.55;19.50;;;20.30;63.00;;;;;;5005788;28;115285;-78
2023/06/10 07:53:19;;;;;;;21.95;19.75;;;20.30;62.70;;;;;;5003368;28;116235;-78
2023/06/10 07:55:46;;;;;;;21.73;19.42;;;20.30;63.20;;;;;;5004730;28;114467;-76
2023/06/10 07:58:16;;;;;;;21.17;18.85;;;20.20;62.60;;;;;;4987717;28;115932;-76
2023/06/10 08:00:45;;;;;;;22.13;19.67;;;20.20;62.80;;;;;;5000576;28;115519;-76
2023/06/10 08:03:13;;;;;;;22.27;20.05;;;20.20;63.10;;;;;;5004863;28;115196;-78
2023/06/10 08:05:41;;;;;;;23.42;20.50;;;20.20;63.20;;;;;;5005577;28;114146;-76
2023/06/10 08:08:08;;;;;;;22.15;19.95;;;20.20;63.50;;;;;;4987770;28;114478;-76
2023/06/10 08:10:36;;;;;;;23.48;20.58;;;20.10;63.60;;;;;;5005742;28;116154;-76
2023/06/10 08:13:04;;;;;;;22.48;20.23;;;20.00;63.60;;;;;;5007442;28;114628;-76
2023/06/10 08:15:32;;;;;;;22.48;20.17;;;20.10;63.70;;;;;;5008027;28;114503;-76
2023/06/10 08:18:00;;;;;;;22.00;19.77;;;20.20;63.90;;;;;;5007277;28;114456;-76
2023/06/10 08:20:27;;;;;;;23.38;20.88;;;20.20;63.60;;;;;;5007433;28;114972;-76
2023/06/10 08:22:54;;;;;;;24.13;20.85;;;20.20;63.30;;;;;;5006163;28;114641;-75
2023/06/10 08:25:22;;;;;;;24.60;22.00;;;20.20;63.20;;;;;;4990774;28;114310;-75
2023/06/10 08:27:50;;;;;;;21.73;19.42;;;20.30;63.40;;;;;;5008397;28;114191;-76
2023/06/10 08:30:18;;;;;;;23.30;20.80;;;20.30;62.70;;;;;;5008561;28;114997;-77
2023/06/10 08:32:45;;;;;;;22.83;20.55;;;20.30;62.70;;;;;;5007038;28;116750;-75
2023/06/10 08:35:12;;;;;;;26.15;22.75;;;20.30;62.90;;;;;;5009332;28;114101;-75
2023/06/10 08:37:39;;;;;;;24.98;21.17;;;20.20;63.10;;;;;;4989075;28;114342;-76
2023/06/10 08:40:07;;;;;;;23.77;21.17;;;20.20;63.60;;;;;;5007023;28;115560;-75
2023/06/10 08:42:45;;;;;;;21.60;19.40;;;20.30;63.40;;;;;;4990889;28;114667;-75
2023/06/10 08:45:16;;;;;;;24.35;21.70;;;20.40;63.20;;;;;;5023343;28;115403;-76
2023/06/10 08:47:43;;;;;;;22.52;20.13;;;20.50;63.10;;;;;;5028285;28;114299;-75
2023/06/10 08:50:10;;;;;;;20.73;18.42;;;20.50;62.60;;;;;;5027198;28;114861;-76
2023/06/10 08:52:42;;;;;;;21.40;17.85;;;20.50;62.90;;;;;;5010384;28;117230;-76
2023/06/10 08:55:19;;;;;;;20.75;17.40;;;20.70;62.80;;;;;;5028055;28;114966;-76
2023/06/10 08:57:47;;;;;;;19.70;17.70;;;20.80;61.90;;;;;;5029282;27;114400;-77
2023/06/10 09:00:16;;;;;;;21.13;18.33;;;20.80;62.10;;;;;;5011680;28;116209;-76
2023/06/10 09:02:43;;;;;;;19.02;17.02;;;20.70;62.00;;;;;;4989969;28;114591;-76
2023/06/10 09:05:11;;;;;;;19.83;17.83;;;20.70;62.00;;;;;;5007928;28;117246;-76
2023/06/10 09:07:38;;;;;;;21.75;19.52;;;20.70;62.40;;;;;;4991039;28;114389;-75
2023/06/10 09:10:09;;;;;;;20.88;18.70;;;20.70;62.30;;;;;;4990108;28;115406;-76
2023/06/10 09:12:37;;;;;;;18.95;17.05;;;20.70;61.90;;;;;;5007017;28;115011;-76
2023/06/10 09:15:06;;;;;;;19.92;17.83;;;20.70;61.80;;;;;;4991442;28;114457;-76
2023/06/10 09:17:36;;;;;;;18.45;16.55;;;20.60;61.80;;;;;;5007555;28;114460;-75
2023/06/10 09:20:03;;;;;;;19.45;17.45;;;20.60;62.00;;;;;;5006738;28;117971;-76
2023/06/10 09:22:33;;;;;;;17.52;15.82;;;20.60;61.50;;;;;;5007118;28;114736;-77
2023/06/10 09:25:10;;;;;;;17.33;15.63;;;20.60;61.30;;;;;;5006342;28;114396;-76
2023/06/10 09:27:50;;;;;;;18.25;16.35;;;20.70;61.60;;;;;;5009008;28;114467;-76
2023/06/10 09:30:31;;;;;;;19.20;17.10;;;20.80;62.00;;;;;;5010684;28;115118;-76
2023/06/10 09:33:00;;;;;;;17.63;15.93;;;20.90;61.40;;;;;;5026620;28;114734;-76
2023/06/10 09:35:28;;;;;;;17.20;15.40;;;21.10;61.00;;;;;;5027391;28;114766;-76
2023/06/10 09:37:57;;;;;;;16.00;13.63;;;21.20;60.90;;;;;;5029169;28;114473;-76
2023/06/10 09:40:24;;;;;;;14.55;13.15;;;21.30;60.30;;;;;;5028699;28;115042;-76
2023/06/10 09:42:56;;;;;;;14.73;13.23;;;21.20;59.90;;;;;;5005153;28;114666;-76
2023/06/10 09:45:27;;;;;;;14.70;13.30;;;21.00;59.80;;;;;;5007299;28;114262;-76
2023/06/10 09:47:55;;;;;;;14.50;13.10;;;21.00;60.00;;;;;;5007113;28;114680;-75
2023/06/10 09:50:23;;;;;;;15.38;12.57;;;21.00;59.90;;;;;;5007258;28;115079;-76
2023/06/10 09:52:54;;;;;;;12.75;11.55;;;21.00;59.60;;;;;;5006427;28;114657;-77
2023/06/10 09:55:23;;;;;;;14.15;12.65;;;21.00;59.40;;;;;;5006204;28;114454;-77
2023/06/10 09:57:53;;;;;;;16.30;11.48;;;21.00;59.60;;;;;;5007374;28;114345;-76
2023/06/10 10:00:21;;;;;;;14.00;10.90;;;21.00;59.30;;;;;;4989756;28;114919;-77
2023/06/10 10:02:49;;;;;;;12.52;10.27;;;21.10;58.60;;;;;;5005820;28;117033;-77
2023/06/10 10:05:18;;;;;;;12.38;9.85;;;21.20;58.60;;;;;;5008076;28;114427;-77
2023/06/10 10:07:46;;;;;;;10.18;9.05;;;21.30;57.60;;;;;;4990481;28;114274;-76
2023/06/10 10:10:14;;;;;;;11.15;9.45;;;21.50;56.90;;;;;;5005936;28;115571;-77
2023/06/10 10:12:42;;;;;;;10.68;9.18;;;21.60;56.50;;;;;;5007372;28;114577;-76
2023/06/10 10:15:10;;;;;;;10.07;8.40;;;21.80;56.60;;;;;;5008379;28;114267;-76
2023/06/10 10:17:44;;;;;;;10.07;9.05;;;21.90;55.90;;;;;;5007308;28;114455;-76
2023/06/10 10:20:13;;;;;;;10.57;8.70;;;21.90;55.60;;;;;;5006092;28;114936;-76
2023/06/10 10:22:41;;;;;;;10.15;9.15;;;21.90;55.30;;;;;;5006907;28;115666;-76
2023/06/10 10:25:13;;;;;;;11.43;9.60;;;21.90;55.20;;;;;;4990620;28;114336;-75
2023/06/10 10:27:50;;;;;;;11.90;9.63;;;21.80;55.10;;;;;;5007277;28;114708;-75
2023/06/10 10:30:20;;;;;;;13.23;11.00;;;21.80;55.10;;;;;;5006935;28;115022;-76
2023/06/10 10:32:59;;;;;;;14.20;11.27;;;21.70;55.10;;;;;;5008148;28;114415;-75
2023/06/10 10:35:27;;;;;;;13.35;10.93;;;21.60;55.40;;;;;;4989048;28;115917;-75
2023/06/10 10:37:54;;;;;;;13.25;11.00;;;21.50;55.80;;;;;;5006536;28;114619;-75
2023/06/10 10:40:22;;;;;;;13.05;11.75;;;21.50;55.90;;;;;;5005473;28;116108;-75
2023/06/10 10:42:50;;;;;;;12.82;11.63;;;21.60;56.10;;;;;;4989074;28;115406;-75
2023/06/10 10:45:17;;;;;;;14.48;11.25;;;21.70;56.10;;;;;;5006526;28;114389;-75
2023/06/10 10:47:45;;;;;;;11.90;10.70;;;21.80;55.90;;;;;;5007629;28;114357;-75
2023/06/10 10:50:17;;;;;;;13.48;12.05;;;22.00;55.70;;;;;;5006739;28;115333;-75
2023/06/10 10:52:54;;;;;;;12.30;11.05;;;22.10;55.10;;;;;;4972639;28;117337;-75
2023/06/10 10:55:25;;;;;;;12.70;11.50;;;22.10;55.30;;;;;;5005903;28;114484;-76
2023/06/10 10:58:06;;;;;;;11.85;10.75;;;22.20;54.90;;;;;;4989880;28;114459;-76
2023/06/10 11:00:38;;;;;;;12.00;10.70;;;22.30;54.30;;;;;;5005429;28;115279;-75
2023/06/10 11:03:07;;;;;;;15.48;11.20;;;22.30;53.80;;;;;;5013267;28;118545;-76
2023/06/10 11:05:44;;;;;;;12.02;10.07;;;22.20;54.70;;;;;;5026271;28;114481;-75
2023/06/10 11:08:11;;;;;;;;;;;22.30;54.10;;;;;;5026957;28;114426;-75
2023/06/10 11:10:40;;;;;;;11.20;9.45;;;22.20;54.20;;;;;;5026914;28;115030;-75
2023/06/10 11:13:13;;;;;;;10.63;9.52;;;22.10;53.60;;;;;;5025609;28;114588;-75
2023/06/10 11:15:46;;;;;;;11.07;9.63;;;22.10;53.20;;;;;;5026592;28;114733;-75
2023/06/10 11:18:15;;;;;;;12.00;9.43;;;22.00;53.80;;;;;;5026649;28;114363;-77
2023/06/10 11:20:48;;;;;;;9.73;8.77;;;21.90;52.80;;;;;;5025751;28;116108;-75
2023/06/10 11:23:25;;;;;;;;;;;21.90;53.20;;;;;;5026944;28;114659;-75
2023/06/10 11:26:27;;;;;;;13.48;9.50;;;21.80;53.80;;;;;;5026047;28;114464;-75
2023/06/10 11:28:55;;;;;;;12.60;9.32;;;21.80;54.00;;;;;;5027416;28;114597;-75
2023/06/10 11:31:23;;;;;;;11.70;9.93;;;21.80;54.40;;;;;;5004016;28;115065;-75
2023/06/10 11:34:02;;;;;;;10.43;9.38;;;21.80;54.10;;;;;;5005191;28;114693;-75
2023/06/10 11:36:30;;;;;;;10.23;9.13;;;21.80;53.90;;;;;;4989349;28;114487;-76
2023/06/10 11:38:58;;;;;;;9.60;8.55;;;21.90;53.90;;;;;;5007458;28;114682;-76
2023/06/10 11:41:26;;;;;;;13.43;9.35;;;22.00;53.70;;;;;;5000032;28;114906;-76
2023/06/10 11:43:56;;;;;;;13.70;10.00;;;22.10;53.80;;;;;;4989407;28;115304;-76
2023/06/10 11:46:27;;;;;;;10.63;9.65;;;22.20;53.70;;;;;;4989441;28;114287;-77
2023/06/10 11:48:58;;;;;;;11.25;9.88;;;22.20;53.30;;;;;;5005278;28;114302;-76
2023/06/10 11:51:30;;;;;;;11.52;10.18;;;22.30;52.90;;;;;;5017611;28;115050;-76
2023/06/10 11:53:57;;;;;;;11.55;10.35;;;22.40;52.70;;;;;;5007982;28;115997;-76
2023/06/10 11:56:27;;;;;;;10.73;9.63;;;22.50;52.80;;;;;;5014758;27;114559;-76
2023/06/10 11:58:58;;;;;;;11.48;9.88;;;22.40;52.90;;;;;;5026697;28;114278;-77
2023/06/10 12:01:26;;;;;;;10.77;9.68;;;22.40;53.20;;;;;;5025753;28;114934;-76
2023/06/10 12:04:09;;;;;;;14.05;9.48;;;22.30;54.30;;;;;;4988142;28;114811;-76
2023/06/10 12:06:43;;;;;;;9.23;7.68;;;22.30;54.90;;;;;;5001246;28;114547;-76
2023/06/10 12:09:14;;;;;;;10.35;7.30;;;22.10;55.60;;;;;;5005849;28;114215;-76
2023/06/10 12:11:59;;;;;;;8.90;7.25;;;21.90;55.70;;;;;;5005554;28;114989;-75
2023/06/10 12:14:58;;;;;;;10.43;8.10;;;21.70;56.30;;;;;;5005667;28;115204;-77
2023/06/10 12:17:33;;;;;;;9.13;6.73;;;21.50;56.60;;;;;;5005911;28;114295;-77
2023/06/10 12:20:05;;;;;;;8.93;6.95;;;21.20;57.50;;;;;;5006140;28;114226;-76
2023/06/10 12:22:42;;;;;;;8.45;7.07;;;21.10;57.80;;;;;;5004803;28;115083;-76
2023/06/10 12:25:10;;;;;;;10.20;7.10;;;21.00;58.00;;;;;;5004165;28;116647;-75
2023/06/10 12:27:40;;;;;;;13.88;7.50;;;20.80;59.30;;;;;;4989129;28;114319;-75
2023/06/10 12:30:08;;;;;;;9.93;8.30;;;20.60;60.60;;;;;;5007329;28;114323;-76
2023/06/10 12:32:39;;;;;;;12.32;8.75;;;20.40;61.90;;;;;;4988616;28;115022;-76